sensor_id;sensor_type;location;lat;lon;timestamp;P1;durP1;ratioP1;P2;durP2;ratioP2
31764;SDS011;18338;53.240;8.798;2023-09-08T00:02:27;5.78;;;5.38;;
31764;SDS011;18338;53.240;8.798;2023-09-08T00:04:54;6.40;;;5.85;;
31764;SDS011;18338;53.240;8.798;2023-09-08T00:07:21;6.57;;;5.90;;
31764;SDS011;18338;53.240;8.798;2023-09-08T00:09:48;6.63;;;6.13;;
31764;SDS011;18338;53.240;8.798;2023-09-08T00:12:15;6.43;;;5.85;;
31764;SDS011;18338;53.240;8.798;2023-09-08T00:14:42;7.05;;;6.45;;
31764;SDS011;18338;53.240;8.798;2023-09-08T00:17:09;6.80;;;6.22;;
31764;SDS011;18338;53.240;8.798;2023-09-08T00:19:36;6.80;;;6.30;;
31764;SDS011;18338;53.240;8.798;2023-09-08T00:22:03;6.55;;;5.95;;
31764;SDS011;18338;53.240;8.798;2023-09-08T00:24:32;7.65;;;6.45;;
31764;SDS011;18338;53.240;8.798;2023-09-08T00:26:59;6.47;;;5.82;;
31764;SDS011;18338;53.240;8.798;2023-09-08T00:29:26;7.10;;;6.55;;
31764;SDS011;18338;53.240;8.798;2023-09-08T00:31:53;6.18;;;5.68;;
31764;SDS011;18338;53.240;8.798;2023-09-08T00:34:19;6.32;;;5.82;;
31764;SDS011;18338;53.240;8.798;2023-09-08T00:36:46;7.10;;;6.50;;
31764;SDS011;18338;53.240;8.798;2023-09-08T00:39:12;6.88;;;6.30;;
31764;SDS011;18338;53.240;8.798;2023-09-08T00:41:39;6.72;;;6.13;;
31764;SDS011;18338;53.240;8.798;2023-09-08T00:44:06;7.28;;;6.53;;
31764;SDS011;18338;53.240;8.798;2023-09-08T00:46:35;7.40;;;6.70;;
31764;SDS011;18338;53.240;8.798;2023-09-08T00:49:02;7.00;;;6.32;;
31764;SDS011;18338;53.240;8.798;2023-09-08T00:51:29;6.95;;;6.38;;
31764;SDS011;18338;53.240;8.798;2023-09-08T00:53:55;7.03;;;6.20;;
31764;SDS011;18338;53.240;8.798;2023-09-08T00:56:23;6.20;;;5.70;;
31764;SDS011;18338;53.240;8.798;2023-09-08T00:58:50;6.95;;;6.43;;
31764;SDS011;18338;53.240;8.798;2023-09-08T01:01:16;6.25;;;5.75;;
31764;SDS011;18338;53.240;8.798;2023-09-08T01:03:43;6.88;;;6.28;;
31764;SDS011;18338;53.240;8.798;2023-09-08T01:06:10;6.88;;;6.18;;
31764;SDS011;18338;53.240;8.798;2023-09-08T01:08:38;6.63;;;6.13;;
31764;SDS011;18338;53.240;8.798;2023-09-08T01:11:05;6.95;;;6.40;;
31764;SDS011;18338;53.240;8.798;2023-09-08T01:13:33;6.88;;;6.28;;
31764;SDS011;18338;53.240;8.798;2023-09-08T01:16:00;6.95;;;6.32;;
31764;SDS011;18338;53.240;8.798;2023-09-08T01:18:28;6.80;;;6.20;;
31764;SDS011;18338;53.240;8.798;2023-09-08T01:21:13;7.38;;;6.45;;
31764;SDS011;18338;53.240;8.798;2023-09-08T01:26:47;6.78;;;6.13;;
31764;SDS011;18338;53.240;8.798;2023-09-08T01:29:14;7.30;;;6.60;;
31764;SDS011;18338;53.240;8.798;2023-09-08T01:31:42;6.82;;;6.32;;
31764;SDS011;18338;53.240;8.798;2023-09-08T01:34:09;7.57;;;6.97;;
31764;SDS011;18338;53.240;8.798;2023-09-08T01:36:37;7.30;;;6.75;;
31764;SDS011;18338;53.240;8.798;2023-09-08T01:39:04;7.32;;;6.72;;
31764;SDS011;18338;53.240;8.798;2023-09-08T01:41:31;7.35;;;6.65;;
31764;SDS011;18338;53.240;8.798;2023-09-08T01:43:59;7.70;;;6.35;;
31764;SDS011;18338;53.240;8.798;2023-09-08T01:46:26;7.00;;;6.40;;
31764;SDS011;18338;53.240;8.798;2023-09-08T01:48:53;8.00;;;7.20;;
31764;SDS011;18338;53.240;8.798;2023-09-08T01:51:20;7.97;;;7.38;;
31764;SDS011;18338;53.240;8.798;2023-09-08T01:53:46;7.32;;;6.63;;
31764;SDS011;18338;53.240;8.798;2023-09-08T01:56:13;8.27;;;7.47;;
31764;SDS011;18338;53.240;8.798;2023-09-08T01:58:40;8.10;;;7.30;;
31764;SDS011;18338;53.240;8.798;2023-09-08T02:01:06;8.40;;;7.32;;
31764;SDS011;18338;53.240;8.798;2023-09-08T02:03:33;7.90;;;7.15;;
31764;SDS011;18338;53.240;8.798;2023-09-08T02:06:00;7.32;;;6.72;;
31764;SDS011;18338;53.240;8.798;2023-09-08T02:08:26;8.65;;;7.88;;
31764;SDS011;18338;53.240;8.798;2023-09-08T02:10:53;8.07;;;7.28;;
31764;SDS011;18338;53.240;8.798;2023-09-08T02:13:20;8.80;;;8.00;;
31764;SDS011;18338;53.240;8.798;2023-09-08T02:15:46;8.35;;;7.65;;
31764;SDS011;18338;53.240;8.798;2023-09-08T02:18:13;8.38;;;7.68;;
31764;SDS011;18338;53.240;8.798;2023-09-08T02:20:40;8.05;;;7.40;;
31764;SDS011;18338;53.240;8.798;2023-09-08T02:23:07;8.88;;;8.07;;
31764;SDS011;18338;53.240;8.798;2023-09-08T02:25:34;8.35;;;7.65;;
31764;SDS011;18338;53.240;8.798;2023-09-08T02:28:01;7.90;;;7.20;;
31764;SDS011;18338;53.240;8.798;2023-09-08T02:30:28;7.78;;;7.07;;
31764;SDS011;18338;53.240;8.798;2023-09-08T02:32:54;8.40;;;7.70;;
31764;SDS011;18338;53.240;8.798;2023-09-08T02:35:23;8.15;;;7.53;;
31764;SDS011;18338;53.240;8.798;2023-09-08T02:37:51;7.55;;;6.95;;
31764;SDS011;18338;53.240;8.798;2023-09-08T02:40:17;8.48;;;7.78;;
31764;SDS011;18338;53.240;8.798;2023-09-08T02:42:45;9.25;;;8.35;;
31764;SDS011;18338;53.240;8.798;2023-09-08T02:45:12;8.93;;;7.68;;
31764;SDS011;18338;53.240;8.798;2023-09-08T02:47:38;8.82;;;7.70;;
31764;SDS011;18338;53.240;8.798;2023-09-08T02:50:05;8.75;;;7.95;;
31764;SDS011;18338;53.240;8.798;2023-09-08T02:52:33;8.27;;;7.47;;
31764;SDS011;18338;53.240;8.798;2023-09-08T02:55:00;8.10;;;7.47;;
31764;SDS011;18338;53.240;8.798;2023-09-08T02:57:26;7.88;;;7.20;;
31764;SDS011;18338;53.240;8.798;2023-09-08T02:59:53;8.07;;;7.43;;
31764;SDS011;18338;53.240;8.798;2023-09-08T03:02:24;8.48;;;7.63;;
31764;SDS011;18338;53.240;8.798;2023-09-08T03:04:51;9.50;;;8.52;;
31764;SDS011;18338;53.240;8.798;2023-09-08T03:07:18;8.98;;;8.18;;
31764;SDS011;18338;53.240;8.798;2023-09-08T03:09:45;8.45;;;7.65;;
31764;SDS011;18338;53.240;8.798;2023-09-08T03:12:11;9.23;;;8.38;;
31764;SDS011;18338;53.240;8.798;2023-09-08T03:14:38;8.95;;;8.15;;
31764;SDS011;18338;53.240;8.798;2023-09-08T03:17:05;8.25;;;7.45;;
31764;SDS011;18338;53.240;8.798;2023-09-08T03:19:32;8.98;;;8.20;;
31764;SDS011;18338;53.240;8.798;2023-09-08T03:21:58;8.65;;;7.95;;
31764;SDS011;18338;53.240;8.798;2023-09-08T03:24:25;9.25;;;7.63;;
31764;SDS011;18338;53.240;8.798;2023-09-08T03:26:52;8.82;;;7.97;;
31764;SDS011;18338;53.240;8.798;2023-09-08T03:29:18;8.55;;;7.82;;
31764;SDS011;18338;53.240;8.798;2023-09-08T03:31:45;9.32;;;8.52;;
31764;SDS011;18338;53.240;8.798;2023-09-08T03:34:12;9.30;;;8.50;;
31764;SDS011;18338;53.240;8.798;2023-09-08T03:36:39;8.63;;;7.85;;
31764;SDS011;18338;53.240;8.798;2023-09-08T03:39:06;9.10;;;8.20;;
31764;SDS011;18338;53.240;8.798;2023-09-08T03:41:35;9.48;;;8.68;;
31764;SDS011;18338;53.240;8.798;2023-09-08T03:44:02;9.73;;;8.60;;
31764;SDS011;18338;53.240;8.798;2023-09-08T03:46:28;10.00;;;9.20;;
31764;SDS011;18338;53.240;8.798;2023-09-08T03:48:55;9.50;;;8.60;;
31764;SDS011;18338;53.240;8.798;2023-09-08T03:51:27;9.63;;;8.75;;
31764;SDS011;18338;53.240;8.798;2023-09-08T03:53:54;9.70;;;8.90;;
31764;SDS011;18338;53.240;8.798;2023-09-08T03:56:20;9.30;;;8.50;;
31764;SDS011;18338;53.240;8.798;2023-09-08T03:58:47;9.77;;;8.98;;
31764;SDS011;18338;53.240;8.798;2023-09-08T04:01:15;9.77;;;8.88;;
31764;SDS011;18338;53.240;8.798;2023-09-08T04:03:41;11.02;;;9.93;;
31764;SDS011;18338;53.240;8.798;2023-09-08T04:06:08;10.60;;;9.50;;
31764;SDS011;18338;53.240;8.798;2023-09-08T04:08:35;11.15;;;10.10;;
31764;SDS011;18338;53.240;8.798;2023-09-08T04:11:01;10.98;;;10.00;;
31764;SDS011;18338;53.240;8.798;2023-09-08T04:13:28;10.93;;;10.00;;
31764;SDS011;18338;53.240;8.798;2023-09-08T04:15:55;10.77;;;9.75;;
31764;SDS011;18338;53.240;8.798;2023-09-08T04:18:21;11.07;;;10.05;;
31764;SDS011;18338;53.240;8.798;2023-09-08T04:20:48;10.73;;;9.68;;
31764;SDS011;18338;53.240;8.798;2023-09-08T04:23:15;10.88;;;9.95;;
31764;SDS011;18338;53.240;8.798;2023-09-08T04:25:41;10.80;;;9.90;;
31764;SDS011;18338;53.240;8.798;2023-09-08T04:28:08;11.23;;;10.23;;
31764;SDS011;18338;53.240;8.798;2023-09-08T04:30:35;11.45;;;10.55;;
31764;SDS011;18338;53.240;8.798;2023-09-08T04:33:03;11.77;;;10.80;;
31764;SDS011;18338;53.240;8.798;2023-09-08T04:35:30;11.25;;;10.23;;
31764;SDS011;18338;53.240;8.798;2023-09-08T04:37:56;12.25;;;11.07;;
31764;SDS011;18338;53.240;8.798;2023-09-08T04:40:23;11.82;;;10.73;;
31764;SDS011;18338;53.240;8.798;2023-09-08T04:42:50;11.70;;;10.70;;
31764;SDS011;18338;53.240;8.798;2023-09-08T04:45:16;12.10;;;11.00;;
31764;SDS011;18338;53.240;8.798;2023-09-08T04:47:43;11.77;;;10.68;;
31764;SDS011;18338;53.240;8.798;2023-09-08T04:50:10;12.25;;;11.15;;
31764;SDS011;18338;53.240;8.798;2023-09-08T04:52:37;12.38;;;11.23;;
31764;SDS011;18338;53.240;8.798;2023-09-08T04:55:03;12.40;;;11.20;;
31764;SDS011;18338;53.240;8.798;2023-09-08T04:57:30;12.02;;;11.00;;
31764;SDS011;18338;53.240;8.798;2023-09-08T04:59:57;11.60;;;10.60;;
31764;SDS011;18338;53.240;8.798;2023-09-08T05:02:24;12.45;;;11.45;;
31764;SDS011;18338;53.240;8.798;2023-09-08T05:04:50;13.18;;;12.05;;
31764;SDS011;18338;53.240;8.798;2023-09-08T05:07:17;12.75;;;11.43;;
31764;SDS011;18338;53.240;8.798;2023-09-08T05:09:45;11.73;;;10.73;;
31764;SDS011;18338;53.240;8.798;2023-09-08T05:12:11;13.52;;;12.23;;
31764;SDS011;18338;53.240;8.798;2023-09-08T05:14:38;12.93;;;11.82;;
31764;SDS011;18338;53.240;8.798;2023-09-08T05:17:04;11.75;;;10.82;;
31764;SDS011;18338;53.240;8.798;2023-09-08T05:19:31;14.02;;;12.73;;
31764;SDS011;18338;53.240;8.798;2023-09-08T05:21:58;12.07;;;10.98;;
31764;SDS011;18338;53.240;8.798;2023-09-08T05:24:25;12.52;;;11.38;;
31764;SDS011;18338;53.240;8.798;2023-09-08T05:26:53;13.98;;;12.63;;
31764;SDS011;18338;53.240;8.798;2023-09-08T05:29:20;12.75;;;11.65;;
31764;SDS011;18338;53.240;8.798;2023-09-08T05:31:46;12.45;;;11.43;;
31764;SDS011;18338;53.240;8.798;2023-09-08T05:34:13;13.38;;;12.20;;
31764;SDS011;18338;53.240;8.798;2023-09-08T05:36:40;12.00;;;11.00;;
31764;SDS011;18338;53.240;8.798;2023-09-08T05:39:08;12.07;;;11.07;;
31764;SDS011;18338;53.240;8.798;2023-09-08T05:41:36;13.13;;;11.93;;
31764;SDS011;18338;53.240;8.798;2023-09-08T05:44:03;14.98;;;11.95;;
31764;SDS011;18338;53.240;8.798;2023-09-08T05:46:30;11.60;;;10.40;;
31764;SDS011;18338;53.240;8.798;2023-09-08T05:48:57;12.10;;;11.02;;
31764;SDS011;18338;53.240;8.798;2023-09-08T05:51:23;12.20;;;11.00;;
31764;SDS011;18338;53.240;8.798;2023-09-08T05:53:50;11.60;;;10.50;;
31764;SDS011;18338;53.240;8.798;2023-09-08T05:56:18;12.57;;;11.27;;
31764;SDS011;18338;53.240;8.798;2023-09-08T05:58:46;12.63;;;11.48;;
31764;SDS011;18338;53.240;8.798;2023-09-08T06:01:13;11.98;;;10.90;;
31764;SDS011;18338;53.240;8.798;2023-09-08T06:03:41;12.68;;;11.48;;
31764;SDS011;18338;53.240;8.798;2023-09-08T06:06:07;13.38;;;12.07;;
31764;SDS011;18338;53.240;8.798;2023-09-08T06:08:34;11.10;;;10.13;;
31764;SDS011;18338;53.240;8.798;2023-09-08T06:11:01;11.40;;;10.27;;
31764;SDS011;18338;53.240;8.798;2023-09-08T06:13:28;10.68;;;9.85;;
31764;SDS011;18338;53.240;8.798;2023-09-08T06:15:55;11.38;;;10.35;;
31764;SDS011;18338;53.240;8.798;2023-09-08T06:18:21;10.90;;;10.00;;
31764;SDS011;18338;53.240;8.798;2023-09-08T06:20:48;10.15;;;9.15;;
31764;SDS011;18338;53.240;8.798;2023-09-08T06:23:15;10.10;;;9.10;;
31764;SDS011;18338;53.240;8.798;2023-09-08T06:25:42;10.18;;;9.35;;
31764;SDS011;18338;53.240;8.798;2023-09-08T06:28:08;10.27;;;9.27;;
31764;SDS011;18338;53.240;8.798;2023-09-08T06:30:35;10.45;;;9.55;;
31764;SDS011;18338;53.240;8.798;2023-09-08T06:33:02;10.25;;;9.25;;
31764;SDS011;18338;53.240;8.798;2023-09-08T06:35:29;9.55;;;8.75;;
31764;SDS011;18338;53.240;8.798;2023-09-08T06:37:56;10.95;;;9.50;;
31764;SDS011;18338;53.240;8.798;2023-09-08T06:40:24;8.10;;;7.43;;
31764;SDS011;18338;53.240;8.798;2023-09-08T06:42:50;8.20;;;7.47;;
31764;SDS011;18338;53.240;8.798;2023-09-08T06:45:18;9.35;;;8.52;;
31764;SDS011;18338;53.240;8.798;2023-09-08T06:47:44;9.00;;;8.20;;
31764;SDS011;18338;53.240;8.798;2023-09-08T06:50:11;8.70;;;7.82;;
31764;SDS011;18338;53.240;8.798;2023-09-08T06:52:38;8.60;;;7.90;;
31764;SDS011;18338;53.240;8.798;2023-09-08T06:55:05;9.30;;;8.23;;
31764;SDS011;18338;53.240;8.798;2023-09-08T06:57:32;8.75;;;8.05;;
31764;SDS011;18338;53.240;8.798;2023-09-08T06:59:59;7.55;;;6.78;;
31764;SDS011;18338;53.240;8.798;2023-09-08T07:02:25;9.65;;;7.65;;
31764;SDS011;18338;53.240;8.798;2023-09-08T07:04:52;7.72;;;7.13;;
31764;SDS011;18338;53.240;8.798;2023-09-08T07:07:19;9.05;;;7.43;;
31764;SDS011;18338;53.240;8.798;2023-09-08T07:09:46;7.30;;;6.68;;
31764;SDS011;18338;53.240;8.798;2023-09-08T07:12:13;8.00;;;7.30;;
31764;SDS011;18338;53.240;8.798;2023-09-08T07:14:40;7.85;;;7.05;;
31764;SDS011;18338;53.240;8.798;2023-09-08T07:17:06;8.15;;;7.35;;
31764;SDS011;18338;53.240;8.798;2023-09-08T07:19:33;7.75;;;7.05;;
31764;SDS011;18338;53.240;8.798;2023-09-08T07:22:00;7.13;;;6.40;;
31764;SDS011;18338;53.240;8.798;2023-09-08T07:24:27;7.47;;;6.78;;
31764;SDS011;18338;53.240;8.798;2023-09-08T07:26:53;7.68;;;7.00;;
31764;SDS011;18338;53.240;8.798;2023-09-08T07:29:20;7.60;;;6.90;;
31764;SDS011;18338;53.240;8.798;2023-09-08T07:31:46;7.43;;;6.60;;
31764;SDS011;18338;53.240;8.798;2023-09-08T07:34:13;6.93;;;6.30;;
31764;SDS011;18338;53.240;8.798;2023-09-08T07:36:40;7.50;;;6.80;;
31764;SDS011;18338;53.240;8.798;2023-09-08T07:39:07;7.18;;;6.53;;
31764;SDS011;18338;53.240;8.798;2023-09-08T07:41:33;7.30;;;6.70;;
31764;SDS011;18338;53.240;8.798;2023-09-08T07:44:01;7.13;;;6.53;;
31764;SDS011;18338;53.240;8.798;2023-09-08T07:46:27;7.50;;;6.72;;
31764;SDS011;18338;53.240;8.798;2023-09-08T07:48:54;7.25;;;6.65;;
31764;SDS011;18338;53.240;8.798;2023-09-08T07:51:21;6.90;;;6.18;;
31764;SDS011;18338;53.240;8.798;2023-09-08T07:53:48;7.35;;;6.57;;
31764;SDS011;18338;53.240;8.798;2023-09-08T07:56:15;7.40;;;6.70;;
31764;SDS011;18338;53.240;8.798;2023-09-08T07:58:41;6.80;;;6.10;;
31764;SDS011;18338;53.240;8.798;2023-09-08T08:01:08;6.32;;;5.80;;
31764;SDS011;18338;53.240;8.798;2023-09-08T08:03:35;6.97;;;6.22;;
31764;SDS011;18338;53.240;8.798;2023-09-08T08:06:02;7.18;;;6.55;;
31764;SDS011;18338;53.240;8.798;2023-09-08T08:08:29;7.75;;;5.88;;
31764;SDS011;18338;53.240;8.798;2023-09-08T08:10:57;10.18;;;6.18;;
31764;SDS011;18338;53.240;8.798;2023-09-08T08:13:23;6.40;;;5.80;;
31764;SDS011;18338;53.240;8.798;2023-09-08T08:15:50;6.15;;;5.55;;
31764;SDS011;18338;53.240;8.798;2023-09-08T08:18:17;6.32;;;5.82;;
31764;SDS011;18338;53.240;8.798;2023-09-08T08:20:44;6.00;;;5.50;;
31764;SDS011;18338;53.240;8.798;2023-09-08T08:23:11;6.28;;;5.40;;
31764;SDS011;18338;53.240;8.798;2023-09-08T08:25:38;7.40;;;5.68;;
31764;SDS011;18338;53.240;8.798;2023-09-08T08:28:05;9.32;;;5.60;;
31764;SDS011;18338;53.240;8.798;2023-09-08T08:30:31;5.13;;;4.72;;
31764;SDS011;18338;53.240;8.798;2023-09-08T08:32:59;7.20;;;4.90;;
31764;SDS011;18338;53.240;8.798;2023-09-08T08:35:25;5.63;;;4.25;;
31764;SDS011;18338;53.240;8.798;2023-09-08T08:37:52;4.53;;;4.07;;
31764;SDS011;18338;53.240;8.798;2023-09-08T08:40:19;4.40;;;4.00;;
31764;SDS011;18338;53.240;8.798;2023-09-08T08:42:46;3.90;;;3.60;;
31764;SDS011;18338;53.240;8.798;2023-09-08T08:45:12;5.15;;;4.05;;
31764;SDS011;18338;53.240;8.798;2023-09-08T08:47:42;4.78;;;4.35;;
31764;SDS011;18338;53.240;8.798;2023-09-08T08:50:09;5.22;;;4.70;;
31764;SDS011;18338;53.240;8.798;2023-09-08T08:52:37;4.68;;;4.25;;
31764;SDS011;18338;53.240;8.798;2023-09-08T08:55:04;5.03;;;4.53;;
31764;SDS011;18338;53.240;8.798;2023-09-08T08:57:31;5.72;;;4.80;;
31764;SDS011;18338;53.240;8.798;2023-09-08T08:59:58;5.32;;;4.82;;
31764;SDS011;18338;53.240;8.798;2023-09-08T09:02:26;4.97;;;4.57;;
31764;SDS011;18338;53.240;8.798;2023-09-08T09:04:54;7.38;;;4.93;;
31764;SDS011;18338;53.240;8.798;2023-09-08T09:07:22;5.00;;;4.50;;
31764;SDS011;18338;53.240;8.798;2023-09-08T09:09:50;5.68;;;5.15;;
31764;SDS011;18338;53.240;8.798;2023-09-08T09:12:18;4.90;;;4.32;;
31764;SDS011;18338;53.240;8.798;2023-09-08T09:14:45;4.60;;;4.18;;
31764;SDS011;18338;53.240;8.798;2023-09-08T09:17:15;4.80;;;4.40;;
31764;SDS011;18338;53.240;8.798;2023-09-08T09:19:42;6.13;;;3.83;;
31764;SDS011;18338;53.240;8.798;2023-09-08T09:22:09;6.00;;;4.65;;
31764;SDS011;18338;53.240;8.798;2023-09-08T09:24:39;4.57;;;4.18;;
31764;SDS011;18338;53.240;8.798;2023-09-08T09:27:10;4.55;;;4.20;;
31764;SDS011;18338;53.240;8.798;2023-09-08T09:29:45;4.50;;;4.20;;
31764;SDS011;18338;53.240;8.798;2023-09-08T09:32:13;4.63;;;4.22;;
31764;SDS011;18338;53.240;8.798;2023-09-08T09:34:50;4.75;;;4.03;;
31764;SDS011;18338;53.240;8.798;2023-09-08T09:37:21;5.75;;;4.10;;
31764;SDS011;18338;53.240;8.798;2023-09-08T09:39:51;7.32;;;4.75;;
31764;SDS011;18338;53.240;8.798;2023-09-08T09:42:20;6.22;;;4.35;;
31764;SDS011;18338;53.240;8.798;2023-09-08T09:44:48;5.47;;;4.18;;
31764;SDS011;18338;53.240;8.798;2023-09-08T09:47:15;4.65;;;4.25;;
31764;SDS011;18338;53.240;8.798;2023-09-08T09:49:43;4.25;;;3.95;;
31764;SDS011;18338;53.240;8.798;2023-09-08T09:52:19;5.28;;;4.30;;
31764;SDS011;18338;53.240;8.798;2023-09-08T09:54:49;4.75;;;4.25;;
31764;SDS011;18338;53.240;8.798;2023-09-08T09:57:18;4.28;;;3.97;;
31764;SDS011;18338;53.240;8.798;2023-09-08T09:59:47;4.03;;;3.72;;
31764;SDS011;18338;53.240;8.798;2023-09-08T10:02:17;5.18;;;4.47;;
31764;SDS011;18338;53.240;8.798;2023-09-08T10:04:48;4.55;;;4.10;;
31764;SDS011;18338;53.240;8.798;2023-09-08T10:07:16;7.35;;;3.88;;
31764;SDS011;18338;53.240;8.798;2023-09-08T10:09:44;4.43;;;4.13;;
31764;SDS011;18338;53.240;8.798;2023-09-08T10:12:12;4.20;;;3.80;;
31764;SDS011;18338;53.240;8.798;2023-09-08T10:14:44;5.97;;;4.03;;
31764;SDS011;18338;53.240;8.798;2023-09-08T10:17:18;4.55;;;4.15;;
31764;SDS011;18338;53.240;8.798;2023-09-08T10:19:51;4.35;;;3.92;;
31764;SDS011;18338;53.240;8.798;2023-09-08T10:22:20;4.63;;;4.22;;
31764;SDS011;18338;53.240;8.798;2023-09-08T10:24:53;4.55;;;4.07;;
31764;SDS011;18338;53.240;8.798;2023-09-08T10:27:21;4.30;;;3.90;;
31764;SDS011;18338;53.240;8.798;2023-09-08T10:29:50;4.47;;;3.55;;
31764;SDS011;18338;53.240;8.798;2023-09-08T10:32:17;5.15;;;3.78;;
31764;SDS011;18338;53.240;8.798;2023-09-08T10:34:46;3.95;;;3.55;;
31764;SDS011;18338;53.240;8.798;2023-09-08T10:37:21;5.07;;;3.80;;
31764;SDS011;18338;53.240;8.798;2023-09-08T10:39:55;4.25;;;3.85;;
31764;SDS011;18338;53.240;8.798;2023-09-08T10:42:42;4.22;;;3.92;;
31764;SDS011;18338;53.240;8.798;2023-09-08T10:45:17;4.20;;;3.75;;
31764;SDS011;18338;53.240;8.798;2023-09-08T10:50:25;4.30;;;3.88;;
31764;SDS011;18338;53.240;8.798;2023-09-08T10:53:09;4.05;;;3.75;;
31764;SDS011;18338;53.240;8.798;2023-09-08T10:55:40;4.38;;;3.97;;
31764;SDS011;18338;53.240;8.798;2023-09-08T10:58:10;4.03;;;3.72;;
31764;SDS011;18338;53.240;8.798;2023-09-08T11:00:44;4.65;;;3.83;;
31764;SDS011;18338;53.240;8.798;2023-09-08T11:03:15;5.93;;;3.90;;
31764;SDS011;18338;53.240;8.798;2023-09-08T11:05:53;4.47;;;3.60;;
31764;SDS011;18338;53.240;8.798;2023-09-08T11:08:21;4.38;;;3.97;;
31764;SDS011;18338;53.240;8.798;2023-09-08T11:10:48;4.22;;;3.88;;
31764;SDS011;18338;53.240;8.798;2023-09-08T11:13:15;4.13;;;3.80;;
31764;SDS011;18338;53.240;8.798;2023-09-08T11:15:41;4.63;;;4.22;;
31764;SDS011;18338;53.240;8.798;2023-09-08T11:18:08;3.75;;;3.45;;
31764;SDS011;18338;53.240;8.798;2023-09-08T11:20:35;4.53;;;4.13;;
31764;SDS011;18338;53.240;8.798;2023-09-08T11:23:02;4.32;;;3.90;;
31764;SDS011;18338;53.240;8.798;2023-09-08T11:25:31;4.88;;;3.78;;
31764;SDS011;18338;53.240;8.798;2023-09-08T11:27:59;3.92;;;3.50;;
31764;SDS011;18338;53.240;8.798;2023-09-08T11:30:27;6.32;;;3.90;;
31764;SDS011;18338;53.240;8.798;2023-09-08T11:32:53;4.10;;;3.75;;
31764;SDS011;18338;53.240;8.798;2023-09-08T11:35:21;3.95;;;3.55;;
31764;SDS011;18338;53.240;8.798;2023-09-08T11:37:47;4.22;;;3.85;;
31764;SDS011;18338;53.240;8.798;2023-09-08T11:40:15;4.38;;;3.85;;
31764;SDS011;18338;53.240;8.798;2023-09-08T11:42:43;4.43;;;4.00;;
31764;SDS011;18338;53.240;8.798;2023-09-08T11:45:15;4.07;;;3.88;;
31764;SDS011;18338;53.240;8.798;2023-09-08T11:47:49;4.55;;;3.45;;
31764;SDS011;18338;53.240;8.798;2023-09-08T11:50:17;4.35;;;3.95;;
31764;SDS011;18338;53.240;8.798;2023-09-08T11:52:45;5.07;;;3.42;;
31764;SDS011;18338;53.240;8.798;2023-09-08T11:55:17;4.28;;;3.60;;
31764;SDS011;18338;53.240;8.798;2023-09-08T11:57:54;4.25;;;3.92;;
31764;SDS011;18338;53.240;8.798;2023-09-08T12:00:23;4.15;;;3.85;;
31764;SDS011;18338;53.240;8.798;2023-09-08T12:02:52;3.50;;;3.20;;
31764;SDS011;18338;53.240;8.798;2023-09-08T12:07:53;3.58;;;3.38;;
31764;SDS011;18338;53.240;8.798;2023-09-08T12:10:23;3.78;;;3.47;;
31764;SDS011;18338;53.240;8.798;2023-09-08T12:12:51;4.50;;;3.83;;
31764;SDS011;18338;53.240;8.798;2023-09-08T12:15:40;3.70;;;3.40;;
31764;SDS011;18338;53.240;8.798;2023-09-08T12:18:09;4.15;;;3.75;;
31764;SDS011;18338;53.240;8.798;2023-09-08T12:50:45;3.30;;;3.00;;
31764;SDS011;18338;53.240;8.798;2023-09-08T13:09:29;3.50;;;3.20;;
31764;SDS011;18338;53.240;8.798;2023-09-08T13:18:43;3.70;;;3.42;;
31764;SDS011;18338;53.240;8.798;2023-09-08T13:21:11;3.88;;;3.53;;
31764;SDS011;18338;53.240;8.798;2023-09-08T13:23:38;3.40;;;3.10;;
31764;SDS011;18338;53.240;8.798;2023-09-08T13:26:04;4.00;;;3.70;;
31764;SDS011;18338;53.240;8.798;2023-09-08T13:28:31;3.50;;;3.30;;
31764;SDS011;18338;53.240;8.798;2023-09-08T13:30:58;3.67;;;3.38;;
31764;SDS011;18338;53.240;8.798;2023-09-08T13:33:25;3.83;;;3.40;;
31764;SDS011;18338;53.240;8.798;2023-09-08T13:35:52;3.95;;;3.60;;
31764;SDS011;18338;53.240;8.798;2023-09-08T13:38:19;6.00;;;3.65;;
31764;SDS011;18338;53.240;8.798;2023-09-08T13:40:45;3.95;;;3.65;;
31764;SDS011;18338;53.240;8.798;2023-09-08T13:43:12;5.13;;;3.60;;
31764;SDS011;18338;53.240;8.798;2023-09-08T13:45:39;3.42;;;3.22;;
31764;SDS011;18338;53.240;8.798;2023-09-08T13:48:06;3.60;;;3.30;;
31764;SDS011;18338;53.240;8.798;2023-09-08T13:50:35;3.88;;;3.10;;
31764;SDS011;18338;53.240;8.798;2023-09-08T13:53:06;5.00;;;3.78;;
31764;SDS011;18338;53.240;8.798;2023-09-08T13:55:35;3.42;;;3.13;;
31764;SDS011;18338;53.240;8.798;2023-09-08T13:58:04;3.40;;;3.17;;
31764;SDS011;18338;53.240;8.798;2023-09-08T14:00:35;3.80;;;3.40;;
31764;SDS011;18338;53.240;8.798;2023-09-08T14:03:04;4.82;;;3.17;;
31764;SDS011;18338;53.240;8.798;2023-09-08T14:05:37;3.90;;;3.60;;
31764;SDS011;18338;53.240;8.798;2023-09-08T14:08:11;3.65;;;3.30;;
31764;SDS011;18338;53.240;8.798;2023-09-08T14:10:48;3.83;;;3.53;;
31764;SDS011;18338;53.240;8.798;2023-09-08T14:13:28;4.07;;;3.70;;
31764;SDS011;18338;53.240;8.798;2023-09-08T14:15:55;4.75;;;3.80;;
31764;SDS011;18338;53.240;8.798;2023-09-08T14:18:25;4.38;;;3.65;;
31764;SDS011;18338;53.240;8.798;2023-09-08T14:20:52;4.07;;;3.63;;
31764;SDS011;18338;53.240;8.798;2023-09-08T14:23:18;4.20;;;3.70;;
31764;SDS011;18338;53.240;8.798;2023-09-08T14:25:45;6.72;;;3.92;;
31764;SDS011;18338;53.240;8.798;2023-09-08T14:28:12;4.72;;;3.40;;
31764;SDS011;18338;53.240;8.798;2023-09-08T14:30:39;4.30;;;3.90;;
31764;SDS011;18338;53.240;8.798;2023-09-08T14:33:07;4.35;;;3.38;;
31764;SDS011;18338;53.240;8.798;2023-09-08T14:35:34;5.32;;;3.42;;
31764;SDS011;18338;53.240;8.798;2023-09-08T14:38:01;4.35;;;3.92;;
31764;SDS011;18338;53.240;8.798;2023-09-08T14:40:28;4.20;;;3.80;;
31764;SDS011;18338;53.240;8.798;2023-09-08T14:42:54;4.25;;;3.38;;
31764;SDS011;18338;53.240;8.798;2023-09-08T14:45:21;3.85;;;3.45;;
31764;SDS011;18338;53.240;8.798;2023-09-08T14:47:47;4.88;;;3.25;;
31764;SDS011;18338;53.240;8.798;2023-09-08T14:50:14;3.65;;;3.22;;
31764;SDS011;18338;53.240;8.798;2023-09-08T14:52:42;4.75;;;3.17;;
31764;SDS011;18338;53.240;8.798;2023-09-08T14:55:08;3.85;;;3.55;;
31764;SDS011;18338;53.240;8.798;2023-09-08T14:57:35;3.78;;;3.40;;
31764;SDS011;18338;53.240;8.798;2023-09-08T15:00:02;4.32;;;3.13;;
31764;SDS011;18338;53.240;8.798;2023-09-08T15:02:31;3.50;;;3.30;;
31764;SDS011;18338;53.240;8.798;2023-09-08T15:04:58;3.25;;;2.90;;
31764;SDS011;18338;53.240;8.798;2023-09-08T15:07:24;3.17;;;2.97;;
31764;SDS011;18338;53.240;8.798;2023-09-08T15:09:51;2.95;;;2.75;;
31764;SDS011;18338;53.240;8.798;2023-09-08T15:12:18;4.68;;;4.25;;
31764;SDS011;18338;53.240;8.798;2023-09-08T15:14:45;3.75;;;3.45;;
31764;SDS011;18338;53.240;8.798;2023-09-08T15:17:11;4.55;;;3.47;;
31764;SDS011;18338;53.240;8.798;2023-09-08T15:19:43;6.25;;;3.15;;
31764;SDS011;18338;53.240;8.798;2023-09-08T15:22:09;4.18;;;3.13;;
31764;SDS011;18338;53.240;8.798;2023-09-08T15:24:39;3.42;;;3.13;;
31764;SDS011;18338;53.240;8.798;2023-09-08T15:27:05;3.53;;;3.22;;
31764;SDS011;18338;53.240;8.798;2023-09-08T15:29:32;4.07;;;3.00;;
31764;SDS011;18338;53.240;8.798;2023-09-08T15:31:59;3.50;;;3.30;;
31764;SDS011;18338;53.240;8.798;2023-09-08T15:34:26;3.50;;;3.30;;
31764;SDS011;18338;53.240;8.798;2023-09-08T15:36:53;5.38;;;3.17;;
31764;SDS011;18338;53.240;8.798;2023-09-08T15:39:20;3.95;;;3.35;;
31764;SDS011;18338;53.240;8.798;2023-09-08T15:41:47;3.38;;;3.17;;
31764;SDS011;18338;53.240;8.798;2023-09-08T15:44:14;3.80;;;3.30;;
31764;SDS011;18338;53.240;8.798;2023-09-08T15:46:41;3.58;;;3.22;;
31764;SDS011;18338;53.240;8.798;2023-09-08T15:49:07;5.30;;;3.33;;